Skip Navigation Links Skip Navigation Links

Current Weather

Twin County, Galax Hillsville, Va.

For information only: do not use for flight planning or navigation.
Latest weather
Observation time Wednesday, February 20, 2019 12:55 PM EST
Local time Wednesday, February 20, 2019 1:18 PM EST
Flight conditions Low Instrument Meteorological Conditions
Winds
Wind speed calm
Visibility 1.75 mi.
Sky condition
Ceiling 400 ft. broken clouds
Cloud layer broken clouds 400 ft.
Cloud layer overcast 1,000 ft.
Temperature 32°F
Dewpoint 31°F
Altimeter 30.20 in.Hg
Derived measurements
Relative humidity 96%
Wind chill 32°F
Density altitude 601 ft.
Climate data
Temperature minimum, last 6 hours 29°F
Temperature maximum, last 6 hours 32°F
Remarks
Fully automated report.
Automated weather observing station with precipitation discriminator.
Present weather sensor not operating.
METAR KHLX 201755Z AUTO 00000KT 1 3/4SM BKN004 OVC010 00/M01 A3020 RMK AO2 T10021007 11002 21017 PWINO

Settings

Location code

InnerDrive.Weather 4.0.6770.0 Release CLR 4.0.30319.42000
Copyright ©2018 Inner Drive Technology. All rights reserved. Portions Copyright ©1986-2018 David Braverman.

Find weather

Site navigation


Skip Navigation Links

Place info

Page info

PayPal - The safer, easier way to pay online!

Return home.

Copyright ©2019 Inner Drive Technology. Purveyors of fine, hand-crafted computer software. Page printed 2019-02-20T18:18:17 UTC.